Nearby METAR Reports

 

KMLP - Mullan Pass
Updated: Fri, 22-Nov-2019 5:53am PST
Clear
Clear
 Wind from varies
Wind: varies 3 mph , 6 km/h
Temperature: 28°F , -2°C
Dew Point: 16°F , -9°C
Humidity: 59%
Barometer: 30.07 inHg , 1018.3 hPa
Clouds: Clear
Visibility: 10 miles , 16 km
2019/11/22 13:53 KMLP 221353Z AUTO VRB03KT 10SM CLR M02/M09 A3007 RMK AO2 SLP161 T10221089 $
KCOE - Coeur d Alene
Updated: Fri, 22-Nov-2019 6:13am PST
Mostly Cloudy
Mostly Cloudy
 Wind from calm
Wind: Calm
Temperature: 27°F , -3°C
Dew Point: 25°F , -4°C
Humidity: 93%
Barometer: 30.21 inHg , 1023 hPa
Clouds: Mostly Cloudy
Visibility: 10 miles , 16 km
Cloud details: Mostly Cloudy 500 ft
2019/11/22 14:13 KCOE 221413Z AUTO 00000KT 10SM BKN005 M03/M04 A3021 RMK AO2 FZRANO
 
KLWS - Lewiston
Updated: Fri, 22-Nov-2019 6:40am PST
Freezing fog, Overcast
Freezing fog, Overcast
 Wind from calm
Wind: Calm
Temperature: 28°F , -2°C
Dew Point: 27°F , -3°C
Humidity: 93%
Barometer: 30.24 inHg , 1024 hPa
Summary: Freezing Fog
Clouds: Overcast
Visibility: 1/4 mile , 0.4 km
Cloud details: Overcast 100 ft
2019/11/22 14:40 KLWS 221440Z 00000KT 1/4SM FZFG VV001 M02/M03 A3024 RMK AO2 I1001 T10221033
KGEG - Spokane Intl
Updated: Fri, 22-Nov-2019 6:00am PST
Freezing fog, Overcast
Freezing fog, Overcast
 Wind from calm
Wind: Calm
Temperature: 25°F , -4°C
Dew Point: 21°F , -6°C
Humidity: 86%
Barometer: 30.19 inHg , 1022.4 hPa
Summary: Freezing Fog
Clouds: Overcast
Visibility: 1/8 mile , 0.2 km
Cloud details: Overcast 100 ft
2019/11/22 14:00 KGEG 221400Z 00000KT 1/8SM R21/1200V1800FT FZFG VV001 M04/M06 A3019 RMK AO2 TWR VIS 4+ T10441056